createdAt,value
2019-01-24T00:01:00.275Z,89.00
2019-01-24T00:03:27.767Z,88.70
2019-01-24T00:05:55.308Z,88.70
2019-01-24T00:08:23.171Z,88.40
2019-01-24T00:10:50.695Z,88.90
2019-01-24T00:13:18.801Z,88.70
2019-01-24T00:15:46.344Z,88.50
2019-01-24T00:18:14.984Z,88.50
2019-01-24T00:20:42.677Z,89.20
2019-01-24T00:23:10.154Z,89.20
2019-01-24T00:25:37.665Z,89.10
2019-01-24T00:28:05.210Z,89.20
2019-01-24T00:30:33.136Z,88.90
2019-01-24T00:33:01.173Z,88.60
2019-01-24T00:35:28.778Z,88.40
2019-01-24T00:37:56.324Z,88.20
2019-01-24T00:40:23.871Z,87.40
2019-01-24T00:42:51.270Z,87.60
2019-01-24T00:45:19.884Z,87.70
2019-01-24T00:47:47.557Z,87.50
2019-01-24T00:50:15.257Z,87.70
2019-01-24T00:52:42.791Z,88.00
2019-01-24T00:55:11.197Z,88.30
2019-01-24T00:57:38.662Z,88.50
2019-01-24T01:00:10.276Z,88.80
2019-01-24T01:02:37.885Z,88.70
2019-01-24T01:05:06.454Z,88.90
2019-01-24T01:07:34.091Z,88.80
2019-01-24T01:10:01.646Z,88.90
2019-01-24T01:12:29.472Z,88.80
2019-01-24T01:14:57.050Z,88.90
2019-01-24T01:17:24.629Z,89.00
2019-01-24T01:19:52.116Z,89.20
2019-01-24T01:22:19.656Z,88.90
2019-01-24T01:24:47.153Z,89.10
2019-01-24T01:27:14.697Z,89.00
2019-01-24T01:29:42.375Z,89.10
2019-01-24T01:32:09.892Z,89.30
2019-01-24T01:34:37.460Z,89.30
2019-01-24T01:37:06.043Z,88.90
2019-01-24T01:39:33.600Z,89.10
2019-01-24T01:42:01.078Z,89.60
2019-01-24T01:44:28.598Z,89.60
2019-01-24T01:46:56.159Z,89.40
2019-01-24T01:49:23.698Z,89.60
2019-01-24T01:51:51.233Z,89.40
2019-01-24T01:54:18.722Z,89.40
2019-01-24T01:56:46.285Z,89.50
2019-01-24T01:59:13.904Z,89.50
2019-01-24T02:01:41.486Z,89.50
2019-01-24T02:04:09.012Z,89.50
2019-01-24T02:06:36.393Z,89.70
2019-01-24T02:09:07.919Z,89.80
2019-01-24T02:11:35.563Z,89.60
2019-01-24T02:14:03.494Z,89.60
2019-01-24T02:16:30.968Z,89.50
2019-01-24T02:18:58.880Z,89.70
2019-01-24T02:21:26.389Z,90.00
2019-01-24T02:23:53.828Z,90.00
2019-01-24T02:26:21.348Z,90.00
2019-01-24T02:28:48.862Z,89.70
2019-01-24T02:31:16.367Z,89.70
2019-01-24T02:33:43.903Z,90.20
2019-01-24T02:36:11.454Z,89.70
2019-01-24T02:38:38.931Z,89.70
2019-01-24T02:41:06.919Z,89.70
2019-01-24T02:43:34.411Z,89.80
2019-01-24T02:46:01.798Z,90.20
2019-01-24T02:48:29.341Z,90.60
2019-01-24T02:50:56.906Z,91.00
2019-01-24T02:53:24.535Z,90.50
2019-01-24T02:55:52.097Z,90.30
2019-01-24T02:58:19.465Z,89.90
2019-01-24T03:00:47.015Z,90.20
2019-01-24T03:03:14.635Z,90.30
2019-01-24T03:05:42.145Z,89.80
2019-01-24T03:08:09.750Z,89.90
2019-01-24T03:10:37.353Z,90.40
2019-01-24T03:13:04.933Z,89.90
2019-01-24T03:15:32.860Z,89.90
2019-01-24T03:18:00.446Z,90.10
2019-01-24T03:20:27.971Z,89.90
2019-01-24T03:22:55.753Z,90.00
2019-01-24T03:25:24.184Z,90.10
2019-01-24T03:27:51.791Z,90.10
2019-01-24T03:30:20.695Z,90.10
2019-01-24T03:32:49.501Z,90.20
2019-01-24T03:35:27.266Z,90.00
2019-01-24T03:37:54.769Z,90.00
2019-01-24T03:40:22.661Z,90.10
2019-01-24T03:42:50.168Z,89.80
2019-01-24T03:45:17.684Z,89.80
2019-01-24T03:47:46.292Z,90.00
2019-01-24T03:50:19.428Z,89.90
2019-01-24T03:52:47.263Z,90.10
2019-01-24T03:55:15.932Z,89.90
2019-01-24T03:57:43.813Z,89.70
2019-01-24T04:00:13.987Z,89.90
2019-01-24T04:02:41.364Z,89.80
2019-01-24T04:05:12.074Z,89.40
2019-01-24T04:07:38.644Z,89.70
2019-01-24T04:10:09.220Z,89.60
2019-01-24T04:12:36.706Z,89.30
2019-01-24T04:15:05.243Z,89.00
2019-01-24T04:17:32.613Z,89.50
2019-01-24T04:20:00.150Z,89.40
2019-01-24T04:22:27.799Z,89.70
2019-01-24T04:24:55.288Z,89.30
2019-01-24T04:27:22.620Z,89.60
2019-01-24T04:29:51.058Z,89.60
2019-01-24T04:32:18.570Z,89.60
2019-01-24T04:34:45.910Z,89.50
2019-01-24T04:37:13.386Z,89.50
2019-01-24T04:39:41.490Z,89.60
2019-01-24T04:42:08.932Z,89.50
2019-01-24T04:44:36.412Z,89.40
2019-01-24T04:47:03.933Z,89.70
2019-01-24T04:49:31.402Z,89.60
2019-01-24T04:51:58.859Z,89.50
2019-01-24T04:54:26.346Z,89.50
2019-01-24T04:56:53.792Z,89.70
2019-01-24T04:59:21.251Z,89.60
2019-01-24T05:01:48.587Z,89.20
2019-01-24T05:04:16.051Z,89.00
2019-01-24T05:06:43.580Z,89.50
2019-01-24T05:09:11.055Z,89.40
2019-01-24T05:11:38.554Z,89.40
2019-01-24T05:14:05.978Z,89.40
2019-01-24T05:16:33.342Z,89.40
2019-01-24T05:19:00.842Z,89.50
2019-01-24T05:21:28.362Z,89.50
2019-01-24T05:23:55.815Z,89.90
2019-01-24T05:26:23.329Z,90.10
2019-01-24T05:28:50.863Z,89.90
2019-01-24T05:31:18.336Z,90.10
2019-01-24T05:33:45.727Z,89.90
2019-01-24T05:36:13.177Z,90.00
2019-01-24T05:38:40.663Z,89.50
2019-01-24T05:41:08.142Z,89.40
2019-01-24T05:43:35.629Z,89.50
2019-01-24T05:46:03.223Z,89.70
2019-01-24T05:48:30.699Z,89.40
2019-01-24T05:50:58.185Z,89.60
2019-01-24T05:53:25.796Z,89.30
2019-01-24T05:55:53.274Z,89.40
2019-01-24T05:58:20.718Z,89.60
2019-01-24T06:00:48.288Z,89.40
2019-01-24T06:03:16.956Z,89.40
2019-01-24T06:05:44.890Z,89.30
2019-01-24T06:08:12.912Z,89.20
2019-01-24T06:10:40.416Z,89.00
2019-01-24T06:13:07.869Z,89.50
2019-01-24T06:15:35.242Z,89.50
2019-01-24T06:18:02.779Z,89.30
2019-01-24T06:20:30.598Z,89.20
2019-01-24T06:22:58.120Z,89.20
2019-01-24T06:25:25.587Z,89.90
2019-01-24T06:27:52.963Z,89.40
2019-01-24T06:30:20.610Z,89.20
2019-01-24T06:32:48.133Z,89.40
2019-01-24T06:35:15.597Z,89.40
2019-01-24T06:37:43.045Z,88.90
2019-01-24T06:40:11.156Z,89.00
2019-01-24T06:42:39.590Z,88.90
2019-01-24T06:45:10.450Z,88.70
2019-01-24T06:47:38.183Z,89.00
2019-01-24T06:50:08.009Z,88.80
2019-01-24T06:52:35.494Z,88.60
2019-01-24T06:55:04.299Z,88.50
2019-01-24T06:57:31.826Z,88.50
2019-01-24T06:59:59.235Z,88.90
2019-01-24T07:02:26.691Z,88.70
2019-01-24T07:04:54.065Z,88.30
2019-01-24T07:07:21.933Z,88.90
2019-01-24T07:09:49.762Z,88.80
2019-01-24T07:12:17.282Z,88.70
2019-01-24T07:14:44.843Z,89.00
2019-01-24T07:17:12.293Z,89.00
2019-01-24T07:19:39.915Z,89.10
2019-01-24T07:22:08.123Z,89.00
2019-01-24T07:24:35.835Z,88.90
2019-01-24T07:27:03.165Z,89.00
2019-01-24T07:29:30.984Z,89.30
2019-01-24T07:31:58.520Z,89.40
2019-01-24T07:34:26.073Z,88.90
2019-01-24T07:36:53.536Z,88.90
2019-01-24T07:39:20.860Z,88.60
2019-01-24T07:41:48.474Z,89.20
2019-01-24T07:44:16.198Z,88.70
2019-01-24T07:46:43.716Z,89.20
2019-01-24T07:49:11.059Z,88.90
2019-01-24T07:51:38.550Z,88.40
2019-01-24T07:54:06.027Z,88.40
2019-01-24T07:56:33.522Z,88.80
2019-01-24T07:59:00.949Z,88.60
2019-01-24T08:01:28.341Z,88.40
2019-01-24T08:03:56.017Z,88.10
2019-01-24T08:06:23.527Z,88.20
2019-01-24T08:08:51.016Z,88.50
2019-01-24T08:11:18.398Z,88.40
2019-01-24T08:13:46.535Z,88.70
2019-01-24T08:16:13.979Z,88.80
2019-01-24T08:18:41.667Z,89.20
2019-01-24T08:21:08.998Z,89.30
2019-01-24T08:23:36.353Z,88.80
2019-01-24T08:26:03.884Z,88.90
2019-01-24T08:28:31.378Z,88.70
2019-01-24T08:30:58.853Z,88.60
2019-01-24T08:33:26.342Z,88.70
2019-01-24T08:35:53.887Z,88.90
2019-01-24T08:38:21.354Z,88.80
2019-01-24T08:40:48.827Z,89.10
2019-01-24T08:43:16.330Z,88.60
2019-01-24T08:45:43.767Z,88.70
2019-01-24T08:48:11.316Z,88.30
2019-01-24T08:50:38.666Z,87.70
2019-01-24T08:53:06.258Z,88.00
2019-01-24T08:55:38.904Z,88.50
2019-01-24T08:58:07.225Z,88.50
2019-01-24T09:00:34.721Z,88.50
2019-01-24T09:03:02.494Z,87.30
2019-01-24T09:05:29.974Z,87.70
2019-01-24T09:07:57.680Z,87.30
2019-01-24T09:10:30.623Z,86.90
2019-01-24T09:12:58.442Z,86.40
2019-01-24T09:15:26.086Z,86.60
2019-01-24T09:17:53.522Z,87.30
2019-01-24T09:20:21.030Z,87.00
2019-01-24T09:22:54.966Z,87.00
2019-01-24T09:25:17.934Z,87.00
2019-01-24T09:27:45.456Z,87.00
2019-01-24T09:30:16.479Z,86.70
2019-01-24T09:32:44.431Z,86.90
2019-01-24T09:35:12.064Z,86.90
2019-01-24T09:37:39.549Z,86.40
2019-01-24T09:40:08.846Z,86.60
2019-01-24T09:42:36.228Z,86.30
2019-01-24T09:45:06.397Z,86.80
2019-01-24T09:47:33.902Z,86.70
2019-01-24T09:50:01.392Z,86.60
2019-01-24T09:52:28.799Z,86.60
2019-01-24T09:54:56.254Z,86.50
2019-01-24T09:57:23.609Z,86.80
2019-01-24T09:59:51.203Z,86.20
2019-01-24T10:02:18.681Z,85.30
2019-01-24T10:04:46.291Z,85.30
2019-01-24T10:07:13.745Z,85.40
2019-01-24T10:09:41.222Z,85.40
2019-01-24T10:12:08.655Z,85.30
2019-01-24T10:14:36.139Z,84.60
2019-01-24T10:17:03.619Z,84.70
2019-01-24T10:19:31.121Z,84.50
2019-01-24T10:21:58.465Z,84.70
2019-01-24T10:24:25.956Z,84.10
2019-01-24T10:26:53.433Z,83.70
2019-01-24T10:29:20.917Z,84.60
2019-01-24T10:31:48.509Z,84.50
2019-01-24T10:34:15.949Z,84.00
2019-01-24T10:36:43.436Z,84.40
2019-01-24T10:39:10.949Z,83.90
2019-01-24T10:41:38.436Z,83.70
2019-01-24T10:44:05.781Z,83.20
2019-01-24T10:46:33.598Z,83.80
2019-01-24T10:49:01.147Z,84.20
2019-01-24T10:51:29.037Z,83.60
2019-01-24T10:53:56.520Z,83.90
2019-01-24T10:56:24.022Z,84.20
2019-01-24T10:58:51.523Z,83.90
2019-01-24T11:01:19.057Z,83.60
2019-01-24T11:03:46.717Z,84.20
2019-01-24T11:06:14.222Z,84.20
2019-01-24T11:08:41.729Z,83.80
2019-01-24T11:11:09.243Z,83.30
2019-01-24T11:13:36.760Z,84.40
2019-01-24T11:16:04.438Z,84.40
2019-01-24T11:18:31.951Z,84.50
2019-01-24T11:21:04.217Z,84.70
2019-01-24T11:23:31.818Z,84.70
2019-01-24T11:25:59.350Z,84.20
2019-01-24T11:28:27.507Z,84.00
2019-01-24T11:30:55.286Z,84.70
2019-01-24T11:33:23.406Z,83.80
2019-01-24T11:35:51.318Z,84.60
2019-01-24T11:38:18.789Z,83.50
2019-01-24T11:40:46.462Z,83.60
2019-01-24T11:43:13.960Z,84.10
2019-01-24T11:45:43.032Z,84.00
2019-01-24T11:48:10.697Z,84.20
2019-01-24T11:50:38.244Z,83.70
2019-01-24T11:53:05.760Z,83.90
2019-01-24T11:55:33.407Z,83.20
2019-01-24T11:58:00.904Z,83.20
2019-01-24T12:00:35.892Z,82.90
2019-01-24T12:03:03.835Z,83.80
2019-01-24T12:05:32.964Z,83.10
2019-01-24T12:08:00.336Z,83.10
2019-01-24T12:10:27.854Z,82.80
2019-01-24T12:12:55.423Z,83.50
2019-01-24T12:15:23.187Z,83.00
2019-01-24T12:17:51.016Z,83.10
2019-01-24T12:20:20.418Z,83.70
2019-01-24T12:22:48.348Z,83.60
2019-01-24T12:25:15.861Z,83.30
2019-01-24T12:27:43.500Z,83.40
2019-01-24T12:30:14.558Z,83.70
2019-01-24T12:32:42.158Z,84.00
2019-01-24T12:35:10.002Z,83.70
2019-01-24T12:37:37.519Z,83.70
2019-01-24T12:40:08.089Z,83.70
2019-01-24T12:42:35.979Z,83.50
2019-01-24T12:45:04.616Z,84.10
2019-01-24T12:47:32.138Z,83.70
2019-01-24T12:50:00.061Z,84.10
2019-01-24T12:52:27.869Z,83.60
2019-01-24T12:54:55.737Z,83.80
2019-01-24T12:57:23.259Z,83.20
2019-01-24T12:59:50.791Z,83.40
2019-01-24T13:02:18.272Z,83.80
2019-01-24T13:04:45.912Z,83.80
2019-01-24T13:07:18.393Z,83.90
2019-01-24T13:09:43.708Z,83.20
2019-01-24T13:12:11.224Z,83.70
2019-01-24T13:14:38.704Z,84.00
2019-01-24T13:17:06.501Z,84.20
2019-01-24T13:19:34.023Z,84.00
2019-01-24T13:22:01.607Z,84.20
2019-01-24T13:24:29.116Z,84.20
2019-01-24T13:26:57.687Z,84.60
2019-01-24T13:29:25.544Z,84.20
2019-01-24T13:31:53.072Z,84.00
2019-01-24T13:34:20.495Z,83.40
2019-01-24T13:36:47.884Z,83.20
2019-01-24T13:39:15.459Z,84.30
2019-01-24T13:41:43.507Z,83.70
2019-01-24T13:44:11.890Z,84.20
2019-01-24T13:46:40.610Z,84.40
2019-01-24T13:49:08.301Z,83.80
2019-01-24T13:51:36.180Z,83.90
2019-01-24T13:54:03.693Z,84.10
2019-01-24T13:56:31.180Z,84.60
2019-01-24T13:58:58.709Z,83.90
2019-01-24T14:01:26.364Z,83.90
2019-01-24T14:04:06.171Z,83.70
2019-01-24T14:06:33.513Z,84.00
2019-01-24T14:09:00.879Z,84.60
2019-01-24T14:11:28.463Z,84.30
2019-01-24T14:13:55.828Z,84.40
2019-01-24T14:16:23.342Z,84.20
2019-01-24T14:18:50.916Z,84.10
2019-01-24T14:21:18.550Z,84.40
2019-01-24T14:23:46.137Z,84.00
2019-01-24T14:26:13.657Z,84.20
2019-01-24T14:28:41.466Z,84.30
2019-01-24T14:31:09.048Z,84.30
2019-01-24T14:33:36.602Z,84.50
2019-01-24T14:36:04.151Z,84.90
2019-01-24T14:38:31.711Z,84.90
2019-01-24T14:40:59.083Z,85.00
2019-01-24T14:43:27.475Z,84.90
2019-01-24T14:45:54.865Z,85.20
2019-01-24T14:48:22.896Z,85.30
2019-01-24T14:50:50.445Z,85.50
2019-01-24T14:53:17.909Z,85.40
2019-01-24T14:55:45.455Z,85.40
2019-01-24T14:58:12.986Z,85.10
2019-01-24T15:00:44.287Z,85.20
2019-01-24T15:03:11.769Z,85.40
2019-01-24T15:05:39.713Z,85.50
2019-01-24T15:08:08.370Z,86.20
2019-01-24T15:10:35.893Z,86.20
2019-01-24T15:13:05.065Z,86.00
2019-01-24T15:15:32.857Z,86.50
2019-01-24T15:18:00.379Z,86.30
2019-01-24T15:20:27.895Z,86.70
2019-01-24T15:22:55.401Z,86.80
2019-01-24T15:25:22.974Z,86.90
2019-01-24T15:27:50.502Z,86.90
2019-01-24T15:30:20.008Z,86.90
2019-01-24T15:32:47.523Z,87.10
2019-01-24T15:35:14.915Z,87.60
2019-01-24T15:37:42.447Z,87.60
2019-01-24T15:40:15.783Z,87.90
2019-01-24T15:42:43.377Z,87.80
2019-01-24T15:45:11.280Z,87.70
2019-01-24T15:47:38.815Z,87.40
2019-01-24T15:50:07.860Z,87.60
2019-01-24T15:52:35.358Z,87.60
2019-01-24T15:55:02.978Z,87.90
2019-01-24T15:57:30.433Z,87.60
2019-01-24T15:59:57.930Z,88.00
2019-01-24T16:02:25.523Z,88.10
2019-01-24T16:04:53.061Z,88.30
2019-01-24T16:07:20.444Z,88.10
2019-01-24T16:09:47.978Z,88.50
2019-01-24T16:12:15.524Z,88.30
2019-01-24T16:14:43.100Z,87.60
2019-01-24T16:17:10.567Z,87.00
2019-01-24T16:19:38.124Z,86.50
2019-01-24T16:22:05.639Z,86.10
2019-01-24T16:24:33.303Z,86.40
2019-01-24T16:27:01.857Z,86.90
2019-01-24T16:29:29.421Z,86.90
2019-01-24T16:31:56.920Z,87.30
2019-01-24T16:34:25.296Z,87.50
2019-01-24T16:36:52.829Z,87.20
2019-01-24T16:39:20.321Z,87.60
2019-01-24T16:41:47.855Z,86.80
2019-01-24T16:44:15.355Z,87.00
2019-01-24T16:46:42.908Z,87.50
2019-01-24T16:49:11.008Z,87.60
2019-01-24T16:51:38.598Z,87.60
2019-01-24T16:54:06.096Z,87.50
2019-01-24T16:56:33.594Z,87.20
2019-01-24T16:59:20.513Z,87.50
2019-01-24T17:01:48.394Z,87.50
2019-01-24T17:04:16.134Z,87.30
2019-01-24T17:06:43.667Z,87.90
2019-01-24T17:09:11.347Z,87.90
2019-01-24T17:11:38.765Z,87.60
2019-01-24T17:14:06.658Z,87.30
2019-01-24T17:16:34.220Z,87.50
2019-01-24T17:19:01.870Z,87.50
2019-01-24T17:21:29.733Z,87.20
2019-01-24T17:23:57.220Z,87.30
2019-01-24T17:26:24.740Z,87.80
2019-01-24T17:28:52.326Z,87.80
2019-01-24T17:31:19.893Z,87.80
2019-01-24T17:33:47.397Z,87.60
2019-01-24T17:36:14.789Z,87.70
2019-01-24T17:38:42.325Z,87.70
2019-01-24T17:41:09.830Z,87.90
2019-01-24T17:43:37.361Z,87.80
2019-01-24T17:46:04.858Z,87.90
2019-01-24T17:48:32.332Z,87.70
2019-01-24T17:50:59.753Z,88.00
2019-01-24T17:53:27.925Z,88.30
2019-01-24T17:55:55.349Z,88.40
2019-01-24T17:58:23.134Z,88.30
2019-01-24T18:00:52.280Z,88.20
2019-01-24T18:03:20.191Z,87.90
2019-01-24T18:05:47.680Z,87.90
2019-01-24T18:08:15.206Z,88.10
2019-01-24T18:10:42.718Z,88.10
2019-01-24T18:13:10.229Z,88.10
2019-01-24T18:15:37.837Z,88.10
2019-01-24T18:18:07.330Z,87.90
2019-01-24T18:20:34.938Z,88.20
2019-01-24T18:23:03.235Z,88.30
2019-01-24T18:25:31.405Z,88.30
2019-01-24T18:27:59.087Z,88.40
2019-01-24T18:30:26.970Z,88.30
2019-01-24T18:32:55.740Z,88.20
2019-01-24T18:35:23.563Z,88.10
2019-01-24T18:37:51.050Z,87.80
2019-01-24T18:40:20.348Z,88.00
2019-01-24T18:42:48.429Z,87.60
2019-01-24T18:45:27.583Z,87.50
2019-01-24T18:47:55.124Z,87.50
2019-01-24T18:50:48.701Z,87.60
2019-01-24T18:53:23.298Z,88.10
2019-01-24T18:55:50.818Z,87.80
2019-01-24T18:58:18.218Z,87.80
2019-01-24T19:00:46.599Z,87.60
2019-01-24T19:03:14.746Z,87.70
2019-01-24T19:05:43.069Z,87.80
2019-01-24T19:08:11.185Z,88.10
2019-01-24T19:10:38.779Z,88.20
2019-01-24T19:13:07.718Z,87.70
2019-01-24T19:15:35.379Z,88.10
2019-01-24T19:18:04.313Z,87.80
2019-01-24T19:20:32.084Z,88.00
2019-01-24T19:22:59.596Z,88.20
2019-01-24T19:25:26.959Z,87.80
2019-01-24T19:27:55.858Z,88.20
2019-01-24T19:30:26.104Z,88.00
2019-01-24T19:32:53.812Z,87.60
2019-01-24T19:35:21.868Z,87.80
2019-01-24T19:37:50.088Z,87.80
2019-01-24T19:40:18.891Z,87.60
2019-01-24T19:42:46.413Z,87.60
2019-01-24T19:45:16.411Z,88.00
2019-01-24T19:47:44.035Z,88.10
2019-01-24T19:50:13.977Z,87.90
2019-01-24T19:52:41.527Z,87.30
2019-01-24T19:55:09.723Z,87.70
2019-01-24T19:57:37.216Z,87.70
2019-01-24T20:00:08.508Z,87.60
2019-01-24T20:02:36.295Z,87.70
2019-01-24T20:05:05.259Z,88.20
2019-01-24T20:07:32.846Z,88.30
2019-01-24T20:10:01.290Z,87.80
2019-01-24T20:12:29.474Z,87.30
2019-01-24T20:14:56.998Z,86.80
2019-01-24T20:17:24.609Z,86.90
2019-01-24T20:19:52.587Z,85.80
2019-01-24T20:22:20.392Z,86.60
2019-01-24T20:24:48.264Z,86.40
2019-01-24T20:27:15.767Z,86.30
2019-01-24T20:29:43.292Z,85.90
2019-01-24T20:32:10.789Z,85.70
2019-01-24T20:34:38.335Z,85.90
2019-01-24T20:37:05.852Z,85.80
2019-01-24T20:39:33.489Z,86.30
2019-01-24T20:42:00.972Z,86.30
2019-01-24T20:44:28.771Z,86.00
2019-01-24T20:46:56.298Z,85.70
2019-01-24T20:49:23.807Z,85.70
2019-01-24T20:51:51.240Z,86.00
2019-01-24T20:54:18.783Z,85.90
2019-01-24T20:56:46.371Z,86.30
2019-01-24T20:59:13.782Z,85.80
2019-01-24T21:01:41.147Z,85.90
2019-01-24T21:04:08.766Z,85.80
2019-01-24T21:06:36.239Z,85.90
2019-01-24T21:09:07.392Z,85.90
2019-01-24T21:11:36.992Z,86.30
2019-01-24T21:14:04.606Z,86.50
2019-01-24T21:16:32.160Z,85.90
2019-01-24T21:18:59.681Z,86.10
2019-01-24T21:21:27.178Z,86.10
2019-01-24T21:23:55.887Z,86.30
2019-01-24T21:26:23.337Z,85.90
2019-01-24T21:28:50.897Z,86.10
2019-01-24T21:31:18.454Z,86.10
2019-01-24T21:33:45.958Z,86.10
2019-01-24T21:36:13.483Z,85.70
2019-01-24T21:38:41.059Z,86.10
2019-01-24T21:41:08.567Z,86.10
2019-01-24T21:43:36.107Z,85.90
2019-01-24T21:46:04.461Z,86.20
2019-01-24T21:48:32.413Z,86.60
2019-01-24T21:51:00.557Z,86.50
2019-01-24T21:53:27.913Z,87.00
2019-01-24T21:55:55.420Z,86.30
2019-01-24T21:58:22.990Z,86.00
2019-01-24T22:00:50.583Z,86.20
2019-01-24T22:03:18.276Z,86.20
2019-01-24T22:05:45.850Z,86.10
2019-01-24T22:08:13.372Z,86.20
2019-01-24T22:10:40.878Z,85.70
2019-01-24T22:13:08.428Z,86.30
2019-01-24T22:15:35.948Z,85.80
2019-01-24T22:18:04.140Z,86.20
2019-01-24T22:20:31.658Z,86.00
2019-01-24T22:22:59.210Z,86.80
2019-01-24T22:25:30.219Z,86.40
2019-01-24T22:27:57.593Z,86.40
2019-01-24T22:30:29.819Z,86.20
2019-01-24T22:32:57.295Z,86.20
2019-01-24T22:35:24.826Z,86.70
2019-01-24T22:37:52.404Z,86.80
2019-01-24T22:40:19.998Z,86.30
2019-01-24T22:42:47.540Z,86.30
2019-01-24T22:45:17.955Z,86.30
2019-01-24T22:47:45.497Z,86.40
2019-01-24T22:50:13.610Z,86.00
2019-01-24T22:52:42.724Z,85.80
2019-01-24T22:55:10.489Z,85.90
2019-01-24T22:57:38.154Z,85.70
2019-01-24T23:00:46.757Z,85.30
2019-01-24T23:03:19.014Z,85.60
2019-01-24T23:05:46.602Z,85.20
2019-01-24T23:08:14.140Z,85.50
2019-01-24T23:10:41.606Z,85.50
2019-01-24T23:13:09.173Z,85.50
2019-01-24T23:15:37.050Z,84.60
2019-01-24T23:18:05.024Z,84.80
2019-01-24T23:20:32.566Z,84.80
2019-01-24T23:23:00.043Z,85.00
2019-01-24T23:25:27.595Z,83.90
2019-01-24T23:27:55.213Z,83.90
2019-01-24T23:30:22.829Z,83.90
2019-01-24T23:32:51.088Z,84.40
2019-01-24T23:35:18.846Z,83.80
2019-01-24T23:37:52.320Z,83.60
2019-01-24T23:40:15.994Z,82.40
2019-01-24T23:42:43.745Z,83.30
2019-01-24T23:45:11.284Z,83.00
2019-01-24T23:47:39.228Z,83.10
2019-01-24T23:50:06.933Z,82.70
2019-01-24T23:52:35.563Z,82.20
2019-01-24T23:55:03.871Z,82.10
2019-01-24T23:57:31.369Z,82.50
2019-01-24T23:59:58.945Z,82.00
